createdAt,value
2019-05-17T00:02:17.316Z,15.60
2019-05-17T00:04:47.068Z,14.77
2019-05-17T00:07:17.928Z,16.37
2019-05-17T00:09:48.223Z,14.60
2019-05-17T00:12:18.568Z,15.33
2019-05-17T00:14:49.001Z,15.27
2019-05-17T00:17:19.540Z,15.00
2019-05-17T00:19:50.018Z,17.07
2019-05-17T00:22:20.755Z,14.93
2019-05-17T00:24:52.525Z,16.33
2019-05-17T00:27:22.938Z,15.63
2019-05-17T00:29:53.428Z,17.20
2019-05-17T00:32:27.292Z,15.57
2019-05-17T00:34:57.152Z,15.93
2019-05-17T00:37:27.597Z,17.37
2019-05-17T00:39:59.030Z,18.53
2019-05-17T00:42:29.339Z,16.43
2019-05-17T00:44:59.692Z,14.37
2019-05-17T00:47:30.094Z,16.40
2019-05-17T00:50:00.432Z,16.30
2019-05-17T00:52:30.861Z,16.83
2019-05-17T00:55:01.593Z,14.87
2019-05-17T00:57:32.214Z,17.70
2019-05-17T01:00:02.682Z,14.70
2019-05-17T01:02:36.210Z,15.27
2019-05-17T01:05:06.814Z,14.90
2019-05-17T01:07:37.799Z,14.03
2019-05-17T01:10:09.845Z,15.40
2019-05-17T01:12:40.137Z,16.73
2019-05-17T01:15:11.488Z,20.13
2019-05-17T01:17:42.062Z,17.20
2019-05-17T01:20:12.833Z,16.10
2019-05-17T01:22:43.605Z,16.17
2019-05-17T01:25:17.141Z,18.97
2019-05-17T01:27:47.655Z,16.57
2019-05-17T01:30:18.377Z,16.93
2019-05-17T01:32:48.893Z,19.20
2019-05-17T01:35:19.243Z,15.50
2019-05-17T01:37:49.934Z,15.07
2019-05-17T01:40:20.273Z,15.50
2019-05-17T01:42:50.724Z,15.40
2019-05-17T01:45:22.034Z,20.43
2019-05-17T01:47:52.446Z,15.63
2019-05-17T01:50:23.136Z,18.90
2019-05-17T01:52:53.910Z,19.80
2019-05-17T01:55:26.418Z,19.57
2019-05-17T01:57:56.548Z,17.53
2019-05-17T02:00:27.508Z,15.40
2019-05-17T02:02:57.897Z,15.30
2019-05-17T02:05:28.165Z,14.57
2019-05-17T02:07:58.913Z,22.50
2019-05-17T02:10:29.258Z,20.23
2019-05-17T02:12:59.666Z,15.40
2019-05-17T02:15:30.013Z,15.50
2019-05-17T02:18:00.677Z,15.07
2019-05-17T02:20:31.343Z,18.17
2019-05-17T02:23:01.684Z,17.33
2019-05-17T02:25:32.100Z,19.73
2019-05-17T02:28:02.847Z,14.47
2019-05-17T02:30:33.917Z,21.47
2019-05-17T02:33:04.779Z,29.00
2019-05-17T02:35:35.583Z,16.37
2019-05-17T02:38:05.930Z,15.90
2019-05-17T02:40:36.334Z,13.90
2019-05-17T02:43:06.930Z,17.30
2019-05-17T02:45:37.270Z,19.87
2019-05-17T02:48:08.005Z,17.93
2019-05-17T02:50:38.356Z,17.70
2019-05-17T02:53:08.745Z,16.50
2019-05-17T02:55:39.478Z,16.67
2019-05-17T02:58:12.620Z,15.13
2019-05-17T03:00:44.317Z,16.27
2019-05-17T03:03:14.654Z,23.23
2019-05-17T03:05:45.427Z,46.53
2019-05-17T03:08:16.096Z,51.13
2019-05-17T03:10:46.518Z,46.20
2019-05-17T03:13:18.098Z,55.20
2019-05-17T03:15:48.684Z,68.63
2019-05-17T03:18:22.607Z,73.90
2019-05-17T03:20:52.528Z,82.37
2019-05-17T03:23:23.739Z,86.67
2019-05-17T03:25:54.382Z,85.47
2019-05-17T03:28:25.326Z,63.47
2019-05-17T03:30:57.174Z,36.33
2019-05-17T03:33:35.127Z,22.17
2019-05-17T03:36:06.109Z,21.37
2019-05-17T03:38:34.605Z,19.43
2019-05-17T03:41:17.666Z,30.23
2019-05-17T03:43:41.246Z,67.97
2019-05-17T03:46:13.860Z,79.77
2019-05-17T03:48:43.698Z,81.87
2019-05-17T03:51:14.618Z,99.40
2019-05-17T03:53:45.358Z,79.67
2019-05-17T03:56:15.729Z,91.40
2019-05-17T03:58:46.318Z,79.07
2019-05-17T04:01:16.954Z,94.83
2019-05-17T04:03:47.303Z,95.17
2019-05-17T04:06:17.681Z,99.77
2019-05-17T04:08:49.187Z,54.10
2019-05-17T04:11:27.811Z,107.27
2019-05-17T04:13:53.746Z,99.40
2019-05-17T04:16:24.191Z,97.77
2019-05-17T04:18:54.774Z,101.57
2019-05-17T04:21:25.453Z,48.13
2019-05-17T04:23:55.793Z,43.03
2019-05-17T04:26:26.439Z,37.57
2019-05-17T04:28:57.244Z,44.67
2019-05-17T04:31:30.838Z,70.40
2019-05-17T04:34:02.650Z,85.23
2019-05-17T04:36:32.381Z,70.83
2019-05-17T04:39:03.066Z,98.37
2019-05-17T04:41:45.023Z,96.87
2019-05-17T04:44:06.194Z,79.07
2019-05-17T04:46:36.769Z,47.10
2019-05-17T04:49:07.134Z,59.93
2019-05-17T04:51:37.952Z,35.77
2019-05-17T04:54:08.824Z,28.53
2019-05-17T04:56:42.447Z,23.53
2019-05-17T04:59:13.789Z,24.40
2019-05-17T05:01:43.942Z,24.90
2019-05-17T05:04:15.582Z,28.90
2019-05-17T05:06:46.104Z,32.80
2019-05-17T05:09:16.849Z,50.60
2019-05-17T05:11:59.623Z,29.70
2019-05-17T05:14:19.648Z,36.17
2019-05-17T05:16:52.808Z,24.03
2019-05-17T05:19:22.508Z,30.60
2019-05-17T05:21:52.780Z,38.20
2019-05-17T05:24:23.332Z,29.10
2019-05-17T05:26:53.723Z,37.60
2019-05-17T05:29:24.489Z,26.47
2019-05-17T05:31:54.817Z,25.63
2019-05-17T05:34:25.114Z,35.70
2019-05-17T05:36:55.795Z,37.83
2019-05-17T05:39:26.296Z,46.13
2019-05-17T05:42:06.837Z,28.07
2019-05-17T05:44:29.004Z,36.13
2019-05-17T05:47:01.992Z,39.83
2019-05-17T05:49:32.055Z,61.80
2019-05-17T05:52:03.210Z,53.43
2019-05-17T05:54:34.043Z,31.07
2019-05-17T05:57:04.361Z,26.53
2019-05-17T05:59:35.524Z,25.37
2019-05-17T06:02:05.823Z,30.13
2019-05-17T06:04:36.477Z,27.93
2019-05-17T06:07:07.014Z,24.77
2019-05-17T06:09:37.359Z,22.87
2019-05-17T06:12:22.700Z,31.43
2019-05-17T06:14:41.743Z,47.77
2019-05-17T06:17:12.588Z,46.07
2019-05-17T06:19:43.196Z,23.33
2019-05-17T06:22:14.015Z,28.30
2019-05-17T06:24:44.524Z,27.80
2019-05-17T06:27:14.929Z,27.80
2019-05-17T06:29:45.469Z,25.63
2019-05-17T06:32:16.106Z,31.90
2019-05-17T06:34:46.832Z,34.00
2019-05-17T06:37:17.162Z,42.00
2019-05-17T06:39:47.583Z,27.33
2019-05-17T06:42:18.308Z,29.77
2019-05-17T06:44:48.677Z,45.90
2019-05-17T06:47:19.118Z,47.17
2019-05-17T06:49:50.616Z,51.47
2019-05-17T06:52:22.569Z,40.37
2019-05-17T06:54:53.149Z,36.83
2019-05-17T06:57:23.666Z,36.70
2019-05-17T06:59:54.048Z,26.63
2019-05-17T07:02:26.401Z,30.77
2019-05-17T07:04:58.370Z,23.50
2019-05-17T07:07:30.378Z,30.37
2019-05-17T07:10:01.583Z,23.60
2019-05-17T07:12:31.912Z,28.40
2019-05-17T07:15:02.324Z,82.33
2019-05-17T07:17:33.063Z,69.43
2019-05-17T07:20:03.608Z,52.07
2019-05-17T07:22:34.054Z,31.30
2019-05-17T07:25:05.080Z,44.20
2019-05-17T07:27:41.323Z,45.67
2019-05-17T07:30:09.957Z,30.50
2019-05-17T07:32:41.035Z,58.03
2019-05-17T07:35:11.524Z,49.97
2019-05-17T07:37:42.336Z,81.63
2019-05-17T07:40:13.201Z,87.03
2019-05-17T07:42:43.550Z,79.60
2019-05-17T07:45:16.118Z,58.10
2019-05-17T07:47:46.928Z,35.20
2019-05-17T07:50:19.942Z,44.83
2019-05-17T07:52:50.256Z,68.97
2019-05-17T07:55:22.997Z,42.60
2019-05-17T07:57:53.748Z,32.10
2019-05-17T08:00:24.270Z,42.93
2019-05-17T08:02:55.079Z,48.83
2019-05-17T08:05:25.432Z,43.47
2019-05-17T08:07:56.113Z,60.13
2019-05-17T08:10:26.489Z,51.57
2019-05-17T08:12:57.174Z,94.60
2019-05-17T08:15:30.324Z,87.17
2019-05-17T08:18:01.888Z,137.60
2019-05-17T08:20:32.347Z,130.13
2019-05-17T08:23:05.165Z,137.73
2019-05-17T08:25:51.375Z,111.60
2019-05-17T08:28:10.992Z,174.13
2019-05-17T08:30:41.873Z,154.00
2019-05-17T08:33:12.256Z,129.37
2019-05-17T08:35:42.622Z,140.33
2019-05-17T08:38:13.378Z,104.00
2019-05-17T08:40:43.930Z,123.07
2019-05-17T08:43:14.668Z,135.63
2019-05-17T08:45:45.030Z,127.67
2019-05-17T08:48:15.513Z,120.17
2019-05-17T08:50:46.324Z,131.73
2019-05-17T08:53:16.717Z,133.80
2019-05-17T08:55:47.076Z,129.10
2019-05-17T08:58:21.289Z,139.13
2019-05-17T09:00:50.593Z,109.70
2019-05-17T09:03:21.085Z,126.00
2019-05-17T09:05:52.781Z,122.00
2019-05-17T09:08:23.493Z,124.27
2019-05-17T09:10:53.819Z,102.97
2019-05-17T09:13:24.381Z,93.47
2019-05-17T09:15:55.249Z,29.70
2019-05-17T09:18:25.606Z,138.70
2019-05-17T09:20:57.323Z,139.07
2019-05-17T09:23:30.209Z,103.03
2019-05-17T09:26:00.178Z,128.50
2019-05-17T09:28:30.550Z,120.73
2019-05-17T09:31:01.509Z,37.37
2019-05-17T09:33:31.899Z,197.13
2019-05-17T09:36:02.260Z,201.00
2019-05-17T09:38:32.987Z,212.57
2019-05-17T09:41:03.552Z,156.70
2019-05-17T09:43:34.350Z,95.30
2019-05-17T09:46:04.759Z,35.83
2019-05-17T09:48:35.187Z,35.27
2019-05-17T09:51:07.152Z,49.47
2019-05-17T09:53:39.925Z,61.10
2019-05-17T09:56:09.882Z,128.73
2019-05-17T09:58:40.643Z,101.37
2019-05-17T10:01:11.156Z,64.70
2019-05-17T10:03:41.699Z,37.20
2019-05-17T10:06:12.272Z,102.37
2019-05-17T10:08:43.186Z,148.90
2019-05-17T10:11:13.596Z,78.83
2019-05-17T10:13:44.346Z,118.20
2019-05-17T10:16:14.690Z,113.67
2019-05-17T10:18:45.427Z,52.53
2019-05-17T10:21:15.958Z,62.63
2019-05-17T10:23:46.265Z,40.47
2019-05-17T10:26:16.952Z,40.27
2019-05-17T10:28:47.432Z,57.63
2019-05-17T10:31:19.731Z,80.93
2019-05-17T10:33:50.247Z,99.80
2019-05-17T10:36:20.993Z,106.23
2019-05-17T10:38:51.386Z,113.87
2019-05-17T10:41:21.982Z,99.17
2019-05-17T10:43:52.621Z,131.50
2019-05-17T10:46:22.978Z,146.77
2019-05-17T10:48:53.712Z,36.53
2019-05-17T10:51:24.041Z,91.80
2019-05-17T10:53:54.798Z,29.87
2019-05-17T10:56:25.191Z,33.47
2019-05-17T10:58:55.522Z,37.57
2019-05-17T11:01:26.018Z,53.97
2019-05-17T11:03:56.802Z,56.33
2019-05-17T11:06:27.202Z,48.40
2019-05-17T11:08:59.486Z,124.87
2019-05-17T11:11:30.089Z,102.97
2019-05-17T11:14:00.521Z,133.97
2019-05-17T11:16:30.828Z,152.57
2019-05-17T11:19:01.534Z,155.63
2019-05-17T11:21:32.111Z,164.70
2019-05-17T11:24:02.459Z,171.33
2019-05-17T11:26:33.404Z,161.50
2019-05-17T11:29:04.236Z,77.43
2019-05-17T11:31:34.694Z,167.23
2019-05-17T11:34:05.359Z,171.93
2019-05-17T11:36:36.239Z,107.73
2019-05-17T11:39:07.633Z,129.30
2019-05-17T11:41:38.244Z,127.53
2019-05-17T11:44:09.027Z,121.62
2019-05-17T11:46:39.409Z,103.02
2019-05-17T11:49:09.770Z,135.48
2019-05-17T11:51:40.329Z,107.03
2019-05-17T11:54:10.750Z,152.47
2019-05-17T11:56:41.212Z,128.80
2019-05-17T11:59:11.704Z,103.55
2019-05-17T12:01:42.308Z,125.27
2019-05-17T12:04:13.070Z,184.15
2019-05-17T12:06:43.395Z,178.07
2019-05-17T12:09:13.814Z,118.20
2019-05-17T12:11:44.681Z,107.72
2019-05-17T12:14:15.002Z,119.02
2019-05-17T12:16:45.363Z,181.07
2019-05-17T12:19:16.051Z,142.13
2019-05-17T12:21:46.632Z,97.12
2019-05-17T12:24:17.265Z,67.77
2019-05-17T12:26:47.710Z,120.37
2019-05-17T12:29:18.165Z,27.20
2019-05-17T12:31:48.803Z,29.47
2019-05-17T12:34:19.289Z,62.70
2019-05-17T12:36:49.775Z,108.53
2019-05-17T12:39:20.547Z,40.87
2019-05-17T12:41:51.093Z,22.30
2019-05-17T12:44:21.600Z,25.50
2019-05-17T12:46:52.099Z,22.83
2019-05-17T12:49:22.892Z,23.30
2019-05-17T12:51:53.227Z,60.53
2019-05-17T12:54:23.982Z,26.93
2019-05-17T12:56:54.275Z,42.60
2019-05-17T12:59:25.012Z,47.00
2019-05-17T13:01:55.462Z,210.97
2019-05-17T13:04:25.834Z,187.00
2019-05-17T13:06:56.492Z,267.47
2019-05-17T13:09:27.314Z,91.03
2019-05-17T13:11:57.613Z,38.13
2019-05-17T13:14:28.304Z,43.87
2019-05-17T13:16:58.975Z,32.20
2019-05-17T13:19:29.276Z,32.87
2019-05-17T13:21:59.838Z,54.90
2019-05-17T13:24:30.291Z,17.45
2019-05-17T13:27:00.718Z,28.57
2019-05-17T13:29:31.239Z,24.72
2019-05-17T13:32:02.011Z,17.80
2019-05-17T13:34:32.457Z,22.70
2019-05-17T13:37:02.796Z,65.40
2019-05-17T13:39:33.457Z,90.05
2019-05-17T13:42:04.003Z,67.27
2019-05-17T13:44:34.406Z,80.70
2019-05-17T13:47:05.127Z,43.65
2019-05-17T13:49:35.847Z,64.17
2019-05-17T13:52:06.127Z,53.63
2019-05-17T13:54:36.576Z,106.80
2019-05-17T13:57:07.024Z,127.92
2019-05-17T13:59:37.436Z,125.55
2019-05-17T14:02:08.299Z,142.10
2019-05-17T14:04:38.746Z,138.75
2019-05-17T14:07:09.518Z,110.22
2019-05-17T14:09:40.166Z,178.72
2019-05-17T14:12:10.558Z,74.82
2019-05-17T14:14:41.301Z,174.47
2019-05-17T14:17:12.141Z,180.48
2019-05-17T14:19:42.490Z,190.57
2019-05-17T14:22:13.193Z,167.13
2019-05-17T14:24:43.698Z,159.13
2019-05-17T14:27:13.993Z,193.22
2019-05-17T14:29:44.492Z,288.47
2019-05-17T14:32:15.113Z,320.13
2019-05-17T14:34:45.893Z,168.50
2019-05-17T14:37:16.521Z,89.87
2019-05-17T14:39:46.871Z,75.93
2019-05-17T14:42:17.605Z,78.93
2019-05-17T14:44:48.465Z,21.70
2019-05-17T14:47:18.821Z,28.50
2019-05-17T14:49:51.197Z,29.20
2019-05-17T14:52:21.331Z,40.93
2019-05-17T14:54:51.687Z,29.50
2019-05-17T14:57:22.046Z,32.17
2019-05-17T14:59:52.907Z,38.47
2019-05-17T15:02:25.218Z,36.03
2019-05-17T15:04:55.923Z,29.70
2019-05-17T15:07:26.304Z,28.00
2019-05-17T15:09:57.887Z,37.33
2019-05-17T15:12:29.046Z,33.10
2019-05-17T15:14:59.590Z,33.70
2019-05-17T15:17:34.504Z,36.53
2019-05-17T15:20:02.659Z,31.67
2019-05-17T15:22:33.675Z,48.90
2019-05-17T15:25:05.623Z,35.97
2019-05-17T15:27:36.392Z,41.43
2019-05-17T15:30:07.440Z,58.27
2019-05-17T15:32:38.017Z,70.93
2019-05-17T15:35:08.845Z,78.47
2019-05-17T15:37:39.237Z,61.37
2019-05-17T15:40:10.410Z,56.53
2019-05-17T15:42:44.633Z,69.10
2019-05-17T15:45:13.546Z,74.77
2019-05-17T15:47:44.401Z,73.17
2019-05-17T15:50:15.496Z,58.27
2019-05-17T15:52:45.895Z,57.57
2019-05-17T15:55:17.649Z,71.23
2019-05-17T15:57:48.610Z,52.97
2019-05-17T16:00:19.452Z,24.00
2019-05-17T16:02:50.257Z,26.30
2019-05-17T16:05:20.773Z,67.80
2019-05-17T16:07:51.162Z,198.13
2019-05-17T16:10:22.135Z,199.00
2019-05-17T16:13:02.345Z,196.43
2019-05-17T16:15:24.923Z,118.43
2019-05-17T16:17:55.379Z,114.03
2019-05-17T16:20:25.739Z,115.60
2019-05-17T16:22:56.323Z,112.57
2019-05-17T16:25:27.104Z,64.17
2019-05-17T16:27:57.434Z,102.30
2019-05-17T16:30:27.929Z,37.93
2019-05-17T16:32:58.781Z,61.50
2019-05-17T16:35:29.139Z,44.37
2019-05-17T16:37:59.618Z,56.37
2019-05-17T16:40:30.297Z,41.93
2019-05-17T16:43:16.793Z,41.77
2019-05-17T16:45:33.573Z,49.07
2019-05-17T16:48:03.934Z,59.70
2019-05-17T16:50:34.259Z,49.20
2019-05-17T16:53:06.892Z,73.53
2019-05-17T16:55:37.197Z,88.60
2019-05-17T16:58:07.615Z,80.17
2019-05-17T17:00:40.392Z,58.37
2019-05-17T17:03:10.961Z,32.93
2019-05-17T17:05:41.921Z,41.20
2019-05-17T17:08:12.655Z,47.90
2019-05-17T17:10:43.068Z,40.03
2019-05-17T17:13:13.431Z,58.87
2019-05-17T17:15:43.802Z,70.17
2019-05-17T17:18:14.196Z,59.33
2019-05-17T17:20:45.205Z,55.00
2019-05-17T17:23:15.841Z,66.77
2019-05-17T17:25:46.198Z,56.23
2019-05-17T17:28:16.950Z,79.40
2019-05-17T17:30:47.622Z,108.27
2019-05-17T17:33:17.926Z,74.00
2019-05-17T17:35:48.696Z,122.00
2019-05-17T17:38:19.145Z,142.20
2019-05-17T17:40:49.496Z,99.50
2019-05-17T17:43:20.141Z,56.80
2019-05-17T17:45:51.073Z,44.57
2019-05-17T17:48:21.442Z,40.87
2019-05-17T17:50:51.824Z,40.37
2019-05-17T17:53:23.674Z,47.33
2019-05-17T17:55:54.087Z,35.07
2019-05-17T17:58:24.467Z,48.80
2019-05-17T18:00:55.071Z,51.87
2019-05-17T18:03:25.723Z,40.07
2019-05-17T18:05:56.128Z,45.23
2019-05-17T18:08:26.784Z,66.07
2019-05-17T18:10:57.461Z,64.33
2019-05-17T18:13:27.824Z,69.03
2019-05-17T18:15:58.536Z,56.40
2019-05-17T18:18:28.968Z,69.60
2019-05-17T18:20:59.789Z,67.97
2019-05-17T18:23:30.220Z,76.10
2019-05-17T18:26:01.350Z,79.93
2019-05-17T18:28:32.049Z,62.33
2019-05-17T18:31:02.724Z,82.97
2019-05-17T18:33:33.099Z,75.43
2019-05-17T18:36:03.925Z,94.60
2019-05-17T18:38:35.426Z,91.10
2019-05-17T18:41:06.176Z,78.47
2019-05-17T18:43:36.872Z,89.67
2019-05-17T18:46:07.749Z,91.33
2019-05-17T18:48:38.056Z,98.43
2019-05-17T18:51:08.454Z,90.13
2019-05-17T18:53:38.775Z,91.40
2019-05-17T18:56:09.563Z,101.60
2019-05-17T18:58:40.094Z,93.13
2019-05-17T19:01:11.670Z,121.37
2019-05-17T19:03:42.266Z,153.00
2019-05-17T19:06:14.014Z,161.63
2019-05-17T19:08:44.392Z,154.47
2019-05-17T19:11:14.935Z,91.70
2019-05-17T19:13:45.688Z,132.70
2019-05-17T19:16:16.000Z,99.80
2019-05-17T19:18:46.550Z,53.13
2019-05-17T19:21:17.022Z,63.57
2019-05-17T19:23:47.852Z,35.07
2019-05-17T19:26:18.710Z,29.73
2019-05-17T19:28:49.117Z,30.20
2019-05-17T19:31:19.692Z,35.27
2019-05-17T19:33:50.327Z,41.83
2019-05-17T19:36:20.754Z,33.80
2019-05-17T19:38:51.205Z,32.60
2019-05-17T19:41:22.017Z,29.63
2019-05-17T19:43:52.472Z,30.73
2019-05-17T19:46:22.779Z,31.57
2019-05-17T19:48:53.248Z,41.90
2019-05-17T19:51:23.711Z,47.97
2019-05-17T19:53:54.456Z,41.77
2019-05-17T19:56:24.790Z,43.03
2019-05-17T19:58:55.399Z,41.30
2019-05-17T20:01:26.427Z,37.43
2019-05-17T20:03:57.810Z,38.17
2019-05-17T20:06:28.220Z,36.33
2019-05-17T20:08:58.922Z,35.57
2019-05-17T20:11:34.343Z,35.23
2019-05-17T20:14:01.547Z,35.27
2019-05-17T20:16:32.532Z,35.00
2019-05-17T20:19:02.927Z,34.93
2019-05-17T20:21:33.280Z,35.13
2019-05-17T20:24:03.782Z,47.53
2019-05-17T20:26:34.299Z,61.83
2019-05-17T20:29:05.117Z,56.87
2019-05-17T20:31:35.701Z,47.60
2019-05-17T20:34:06.179Z,86.53
2019-05-17T20:36:37.027Z,137.30
2019-05-17T20:39:08.585Z,87.17
2019-05-17T20:41:39.061Z,113.30
2019-05-17T20:44:09.472Z,332.57
2019-05-17T20:46:39.927Z,350.67
2019-05-17T20:49:10.228Z,350.03
2019-05-17T20:51:40.773Z,65.17
2019-05-17T20:54:11.302Z,66.33
2019-05-17T20:56:41.645Z,89.47
2019-05-17T20:59:12.262Z,124.37
2019-05-17T21:01:42.578Z,193.53
2019-05-17T21:04:13.168Z,91.63
2019-05-17T21:06:43.947Z,81.97
2019-05-17T21:09:14.244Z,100.33
2019-05-17T21:11:44.780Z,175.80
2019-05-17T21:14:15.206Z,44.40
2019-05-17T21:16:45.505Z,53.90
2019-05-17T21:19:15.866Z,60.90
2019-05-17T21:21:46.549Z,50.27
2019-05-17T21:24:16.893Z,40.03
2019-05-17T21:26:47.191Z,40.00
2019-05-17T21:29:17.792Z,45.40
2019-05-17T21:31:48.323Z,108.53
2019-05-17T21:34:19.140Z,111.93
2019-05-17T21:36:49.449Z,95.00
2019-05-17T21:39:19.837Z,89.43
2019-05-17T21:41:50.512Z,92.97
2019-05-17T21:44:20.795Z,68.27
2019-05-17T21:47:03.709Z,88.33
2019-05-17T21:49:23.320Z,105.33
2019-05-17T21:51:53.805Z,94.07
2019-05-17T21:54:24.099Z,81.30
2019-05-17T21:56:54.844Z,80.57
2019-05-17T21:59:25.615Z,56.87
2019-05-17T22:01:56.230Z,56.73
2019-05-17T22:04:27.192Z,56.57
2019-05-17T22:06:57.794Z,50.93
2019-05-17T22:09:28.105Z,61.20
2019-05-17T22:12:01.557Z,69.83
2019-05-17T22:14:31.948Z,82.27
2019-05-17T22:17:02.257Z,69.63
2019-05-17T22:19:32.580Z,56.47
2019-05-17T22:22:03.367Z,70.00
2019-05-17T22:24:34.650Z,127.43
2019-05-17T22:27:05.002Z,86.23
2019-05-17T22:29:35.649Z,82.90
2019-05-17T22:32:06.352Z,98.43
2019-05-17T22:34:36.984Z,130.60
2019-05-17T22:37:07.310Z,79.43
2019-05-17T22:39:37.680Z,140.50
2019-05-17T22:42:08.609Z,79.90
2019-05-17T22:44:38.924Z,67.87
2019-05-17T22:47:09.286Z,37.87
2019-05-17T22:49:39.690Z,53.63
2019-05-17T22:52:10.260Z,64.07
2019-05-17T22:54:40.567Z,73.60
2019-05-17T22:57:11.410Z,73.67
2019-05-17T22:59:42.054Z,66.40
2019-05-17T23:02:12.501Z,53.27
2019-05-17T23:04:43.092Z,52.57
2019-05-17T23:07:13.453Z,53.23
2019-05-17T23:09:44.157Z,47.20
2019-05-17T23:12:14.630Z,62.50
2019-05-17T23:14:44.912Z,62.63
2019-05-17T23:17:15.709Z,61.60
2019-05-17T23:19:46.376Z,64.50
2019-05-17T23:22:16.704Z,81.73
2019-05-17T23:24:47.165Z,62.97
2019-05-17T23:27:17.758Z,45.67
2019-05-17T23:29:48.152Z,50.33
2019-05-17T23:32:18.633Z,39.23
2019-05-17T23:34:50.240Z,40.33
2019-05-17T23:37:20.578Z,58.70
2019-05-17T23:39:52.262Z,57.70
2019-05-17T23:42:22.570Z,57.87
2019-05-17T23:44:53.245Z,58.37
2019-05-17T23:47:23.680Z,60.07
2019-05-17T23:49:53.982Z,57.70
2019-05-17T23:52:24.497Z,69.47
2019-05-17T23:54:55.200Z,67.73
2019-05-17T23:57:25.573Z,60.80
2019-05-17T23:59:56.070Z,66.80
